sensor_id;sensor_type;location;lat;lon;timestamp;temperature;humidity
46378;DHT22;32083;47.360;9.650;2023-05-14T00:04:23;12.70;99.90
46378;DHT22;32083;47.360;9.650;2023-05-14T00:07:20;12.70;99.90
46378;DHT22;32083;47.360;9.650;2023-05-14T00:10:24;12.70;99.90
46378;DHT22;32083;47.360;9.650;2023-05-14T00:35:06;12.60;99.90
46378;DHT22;32083;47.360;9.650;2023-05-14T00:38:22;12.60;99.90
46378;DHT22;32083;47.360;9.650;2023-05-14T00:44:23;12.40;99.90
46378;DHT22;32083;47.360;9.650;2023-05-14T00:51:14;12.50;99.90
46378;DHT22;32083;47.360;9.650;2023-05-14T00:54:49;12.50;99.90
46378;DHT22;32083;47.360;9.650;2023-05-14T00:57:49;12.50;99.90
46378;DHT22;32083;47.360;9.650;2023-05-14T01:03:50;12.50;99.90
46378;DHT22;32083;47.360;9.650;2023-05-14T01:53:47;12.60;99.90
46378;DHT22;32083;47.360;9.650;2023-05-14T02:00:36;12.50;99.90
46378;DHT22;32083;47.360;9.650;2023-05-14T02:03:48;12.60;99.90
46378;DHT22;32083;47.360;9.650;2023-05-14T02:06:42;12.50;99.90
46378;DHT22;32083;47.360;9.650;2023-05-14T02:09:56;12.60;99.90
46378;DHT22;32083;47.360;9.650;2023-05-14T02:23:52;12.50;99.90
46378;DHT22;32083;47.360;9.650;2023-05-14T02:26:49;12.50;99.90
46378;DHT22;32083;47.360;9.650;2023-05-14T02:29:40;12.50;99.90
46378;DHT22;32083;47.360;9.650;2023-05-14T03:51:26;12.40;99.90
46378;DHT22;32083;47.360;9.650;2023-05-14T03:54:30;12.30;99.90
46378;DHT22;32083;47.360;9.650;2023-05-14T03:57:32;12.30;99.90
46378;DHT22;32083;47.360;9.650;2023-05-14T04:00:50;12.20;99.90
46378;DHT22;32083;47.360;9.650;2023-05-14T04:03:28;12.30;99.90
46378;DHT22;32083;47.360;9.650;2023-05-14T04:06:07;12.20;99.90
46378;DHT22;32083;47.360;9.650;2023-05-14T04:08:33;12.20;99.90
46378;DHT22;32083;47.360;9.650;2023-05-14T04:10:59;12.10;99.90
46378;DHT22;32083;47.360;9.650;2023-05-14T04:13:25;12.20;99.90
46378;DHT22;32083;47.360;9.650;2023-05-14T04:15:51;12.10;99.90
46378;DHT22;32083;47.360;9.650;2023-05-14T04:18:17;12.20;99.90
46378;DHT22;32083;47.360;9.650;2023-05-14T04:20:43;12.20;99.90
46378;DHT22;32083;47.360;9.650;2023-05-14T04:23:09;12.20;99.90
46378;DHT22;32083;47.360;9.650;2023-05-14T04:25:35;12.20;99.90
46378;DHT22;32083;47.360;9.650;2023-05-14T04:28:01;12.20;99.90
46378;DHT22;32083;47.360;9.650;2023-05-14T04:30:27;12.20;99.90
46378;DHT22;32083;47.360;9.650;2023-05-14T04:32:54;12.20;99.90
46378;DHT22;32083;47.360;9.650;2023-05-14T04:35:20;12.20;99.90
46378;DHT22;32083;47.360;9.650;2023-05-14T04:37:46;12.10;99.90
46378;DHT22;32083;47.360;9.650;2023-05-14T04:40:13;12.10;99.90
46378;DHT22;32083;47.360;9.650;2023-05-14T04:42:41;12.00;99.90
46378;DHT22;32083;47.360;9.650;2023-05-14T04:45:09;12.10;99.90
46378;DHT22;32083;47.360;9.650;2023-05-14T04:47:35;12.00;99.90
46378;DHT22;32083;47.360;9.650;2023-05-14T04:50:01;12.00;99.90
46378;DHT22;32083;47.360;9.650;2023-05-14T04:52:27;12.10;99.90
46378;DHT22;32083;47.360;9.650;2023-05-14T04:54:53;12.10;99.90
46378;DHT22;32083;47.360;9.650;2023-05-14T04:57:19;12.10;99.90
46378;DHT22;32083;47.360;9.650;2023-05-14T04:59:45;12.10;99.90
46378;DHT22;32083;47.360;9.650;2023-05-14T05:02:11;12.20;99.90
46378;DHT22;32083;47.360;9.650;2023-05-14T05:04:37;12.30;99.90
46378;DHT22;32083;47.360;9.650;2023-05-14T05:07:03;12.30;99.90
46378;DHT22;32083;47.360;9.650;2023-05-14T05:09:31;12.30;99.90
46378;DHT22;32083;47.360;9.650;2023-05-14T05:11:57;12.40;99.90
46378;DHT22;32083;47.360;9.650;2023-05-14T05:14:23;12.30;99.90
46378;DHT22;32083;47.360;9.650;2023-05-14T05:16:50;12.40;99.90
46378;DHT22;32083;47.360;9.650;2023-05-14T05:19:16;12.40;99.90
46378;DHT22;32083;47.360;9.650;2023-05-14T05:21:42;12.40;99.90
46378;DHT22;32083;47.360;9.650;2023-05-14T05:24:08;12.40;99.90
46378;DHT22;32083;47.360;9.650;2023-05-14T05:26:34;12.30;99.90
46378;DHT22;32083;47.360;9.650;2023-05-14T05:29:03;12.40;99.90
46378;DHT22;32083;47.360;9.650;2023-05-14T05:31:30;12.40;99.90
46378;DHT22;32083;47.360;9.650;2023-05-14T05:33:59;12.30;99.90
46378;DHT22;32083;47.360;9.650;2023-05-14T05:36:25;12.30;99.90
46378;DHT22;32083;47.360;9.650;2023-05-14T05:38:52;12.30;99.90
46378;DHT22;32083;47.360;9.650;2023-05-14T05:41:18;12.30;99.90
46378;DHT22;32083;47.360;9.650;2023-05-14T05:43:43;12.40;99.90
46378;DHT22;32083;47.360;9.650;2023-05-14T05:46:09;12.40;99.90
46378;DHT22;32083;47.360;9.650;2023-05-14T05:48:35;12.40;99.90
46378;DHT22;32083;47.360;9.650;2023-05-14T05:51:00;12.40;99.90
46378;DHT22;32083;47.360;9.650;2023-05-14T05:53:26;12.50;99.90
46378;DHT22;32083;47.360;9.650;2023-05-14T05:55:52;12.50;99.90
46378;DHT22;32083;47.360;9.650;2023-05-14T05:58:18;12.50;99.90
46378;DHT22;32083;47.360;9.650;2023-05-14T06:00:45;12.50;99.90
46378;DHT22;32083;47.360;9.650;2023-05-14T06:03:12;12.50;99.90
46378;DHT22;32083;47.360;9.650;2023-05-14T06:05:39;12.50;99.90
46378;DHT22;32083;47.360;9.650;2023-05-14T06:08:05;12.50;99.90
46378;DHT22;32083;47.360;9.650;2023-05-14T06:10:32;12.50;99.90
46378;DHT22;32083;47.360;9.650;2023-05-14T06:12:58;12.50;99.90
46378;DHT22;32083;47.360;9.650;2023-05-14T06:15:24;12.60;99.90
46378;DHT22;32083;47.360;9.650;2023-05-14T06:17:50;12.60;99.90
46378;DHT22;32083;47.360;9.650;2023-05-14T06:20:17;12.60;99.90
46378;DHT22;32083;47.360;9.650;2023-05-14T06:22:43;12.50;99.90
46378;DHT22;32083;47.360;9.650;2023-05-14T06:25:10;12.60;99.90
46378;DHT22;32083;47.360;9.650;2023-05-14T06:27:36;12.60;99.90
46378;DHT22;32083;47.360;9.650;2023-05-14T06:30:02;12.70;99.90
46378;DHT22;32083;47.360;9.650;2023-05-14T06:32:28;12.60;99.90
46378;DHT22;32083;47.360;9.650;2023-05-14T06:34:54;12.70;99.90
46378;DHT22;32083;47.360;9.650;2023-05-14T06:37:20;12.80;99.90
46378;DHT22;32083;47.360;9.650;2023-05-14T06:39:46;12.80;99.90
46378;DHT22;32083;47.360;9.650;2023-05-14T06:42:15;12.80;99.90
46378;DHT22;32083;47.360;9.650;2023-05-14T06:44:41;12.90;99.90
46378;DHT22;32083;47.360;9.650;2023-05-14T06:47:07;12.90;99.90
46378;DHT22;32083;47.360;9.650;2023-05-14T06:49:34;12.80;99.90
46378;DHT22;32083;47.360;9.650;2023-05-14T06:52:00;12.90;99.90
46378;DHT22;32083;47.360;9.650;2023-05-14T06:54:26;13.00;99.90
46378;DHT22;32083;47.360;9.650;2023-05-14T06:56:53;12.80;99.90
46378;DHT22;32083;47.360;9.650;2023-05-14T06:59:19;12.90;99.90
46378;DHT22;32083;47.360;9.650;2023-05-14T07:01:45;13.00;99.90
46378;DHT22;32083;47.360;9.650;2023-05-14T07:04:10;12.80;99.90
46378;DHT22;32083;47.360;9.650;2023-05-14T07:06:37;12.90;99.90
46378;DHT22;32083;47.360;9.650;2023-05-14T07:09:03;12.90;99.90
46378;DHT22;32083;47.360;9.650;2023-05-14T07:11:29;12.90;99.90
46378;DHT22;32083;47.360;9.650;2023-05-14T07:13:55;12.90;99.90
46378;DHT22;32083;47.360;9.650;2023-05-14T07:16:21;13.00;99.90
46378;DHT22;32083;47.360;9.650;2023-05-14T07:18:47;13.10;99.90
46378;DHT22;32083;47.360;9.650;2023-05-14T07:21:13;13.10;99.90
46378;DHT22;32083;47.360;9.650;2023-05-14T07:23:39;12.90;99.90
46378;DHT22;32083;47.360;9.650;2023-05-14T07:26:06;13.00;99.90
46378;DHT22;32083;47.360;9.650;2023-05-14T07:28:32;13.00;99.90
46378;DHT22;32083;47.360;9.650;2023-05-14T07:30:59;13.00;99.90
46378;DHT22;32083;47.360;9.650;2023-05-14T07:33:25;13.10;99.90
46378;DHT22;32083;47.360;9.650;2023-05-14T07:35:52;13.00;99.90
46378;DHT22;32083;47.360;9.650;2023-05-14T07:38:19;13.00;99.90
46378;DHT22;32083;47.360;9.650;2023-05-14T07:40:45;13.00;99.90
46378;DHT22;32083;47.360;9.650;2023-05-14T07:43:11;13.10;99.90
46378;DHT22;32083;47.360;9.650;2023-05-14T07:45:37;13.10;99.90
46378;DHT22;32083;47.360;9.650;2023-05-14T07:48:04;13.10;99.90
46378;DHT22;32083;47.360;9.650;2023-05-14T07:50:30;13.10;99.90
46378;DHT22;32083;47.360;9.650;2023-05-14T07:52:56;13.00;99.90
46378;DHT22;32083;47.360;9.650;2023-05-14T07:55:22;13.10;99.90
46378;DHT22;32083;47.360;9.650;2023-05-14T07:57:48;13.10;99.90
46378;DHT22;32083;47.360;9.650;2023-05-14T08:00:14;12.90;99.90
46378;DHT22;32083;47.360;9.650;2023-05-14T08:02:41;13.00;99.90
46378;DHT22;32083;47.360;9.650;2023-05-14T08:05:08;13.10;99.90
46378;DHT22;32083;47.360;9.650;2023-05-14T08:07:34;13.10;99.90
46378;DHT22;32083;47.360;9.650;2023-05-14T08:10:00;13.10;99.90
46378;DHT22;32083;47.360;9.650;2023-05-14T08:12:26;13.20;99.90
46378;DHT22;32083;47.360;9.650;2023-05-14T08:14:53;13.10;99.90
46378;DHT22;32083;47.360;9.650;2023-05-14T08:17:19;13.20;99.90
46378;DHT22;32083;47.360;9.650;2023-05-14T08:19:45;13.30;99.90
46378;DHT22;32083;47.360;9.650;2023-05-14T08:22:11;13.30;99.90
46378;DHT22;32083;47.360;9.650;2023-05-14T08:24:37;13.50;99.90
46378;DHT22;32083;47.360;9.650;2023-05-14T08:27:04;13.60;99.90
46378;DHT22;32083;47.360;9.650;2023-05-14T08:29:31;13.80;99.90
46378;DHT22;32083;47.360;9.650;2023-05-14T08:31:57;13.90;99.90
46378;DHT22;32083;47.360;9.650;2023-05-14T08:34:23;13.90;99.90
46378;DHT22;32083;47.360;9.650;2023-05-14T08:36:49;13.90;99.90
46378;DHT22;32083;47.360;9.650;2023-05-14T08:39:15;14.00;99.90
46378;DHT22;32083;47.360;9.650;2023-05-14T08:41:42;14.10;99.90
46378;DHT22;32083;47.360;9.650;2023-05-14T08:44:11;14.10;99.90
46378;DHT22;32083;47.360;9.650;2023-05-14T08:46:38;14.20;99.90
46378;DHT22;32083;47.360;9.650;2023-05-14T08:51:45;14.30;99.90
46378;DHT22;32083;47.360;9.650;2023-05-14T08:54:17;14.30;99.90
46378;DHT22;32083;47.360;9.650;2023-05-14T08:56:44;14.30;99.90
46378;DHT22;32083;47.360;9.650;2023-05-14T08:59:13;14.30;99.90
46378;DHT22;32083;47.360;9.650;2023-05-14T09:01:47;14.40;99.90
46378;DHT22;32083;47.360;9.650;2023-05-14T09:04:20;14.20;99.90
46378;DHT22;32083;47.360;9.650;2023-05-14T09:06:49;14.50;99.90
46378;DHT22;32083;47.360;9.650;2023-05-14T09:09:15;14.60;99.90
46378;DHT22;32083;47.360;9.650;2023-05-14T09:11:46;14.70;99.90
46378;DHT22;32083;47.360;9.650;2023-05-14T09:14:12;14.80;99.90
46378;DHT22;32083;47.360;9.650;2023-05-14T09:16:39;14.60;99.90
46378;DHT22;32083;47.360;9.650;2023-05-14T09:19:07;14.70;99.90
46378;DHT22;32083;47.360;9.650;2023-05-14T09:21:34;14.80;99.90
46378;DHT22;32083;47.360;9.650;2023-05-14T09:24:00;14.80;99.90
46378;DHT22;32083;47.360;9.650;2023-05-14T09:26:31;14.90;99.90
46378;DHT22;32083;47.360;9.650;2023-05-14T09:28:58;14.70;99.90
46378;DHT22;32083;47.360;9.650;2023-05-14T09:31:29;14.80;99.90
46378;DHT22;32083;47.360;9.650;2023-05-14T09:33:57;14.90;99.90
46378;DHT22;32083;47.360;9.650;2023-05-14T09:36:24;15.00;99.90
46378;DHT22;32083;47.360;9.650;2023-05-14T09:38:54;15.10;99.90
46378;DHT22;32083;47.360;9.650;2023-05-14T09:41:21;14.90;99.90
46378;DHT22;32083;47.360;9.650;2023-05-14T09:43:48;15.00;99.90
46378;DHT22;32083;47.360;9.650;2023-05-14T09:46:15;15.00;99.90
46378;DHT22;32083;47.360;9.650;2023-05-14T09:48:41;14.80;99.90
46378;DHT22;32083;47.360;9.650;2023-05-14T09:51:09;14.90;99.90
46378;DHT22;32083;47.360;9.650;2023-05-14T09:53:36;15.10;99.90
46378;DHT22;32083;47.360;9.650;2023-05-14T09:56:02;15.20;99.90
46378;DHT22;32083;47.360;9.650;2023-05-14T09:58:28;15.30;99.90
46378;DHT22;32083;47.360;9.650;2023-05-14T10:00:57;15.20;99.90
46378;DHT22;32083;47.360;9.650;2023-05-14T10:03:24;15.20;99.90
46378;DHT22;32083;47.360;9.650;2023-05-14T10:05:53;15.30;99.90
46378;DHT22;32083;47.360;9.650;2023-05-14T10:08:26;15.20;99.90
46378;DHT22;32083;47.360;9.650;2023-05-14T10:10:55;15.50;99.90
46378;DHT22;32083;47.360;9.650;2023-05-14T10:13:27;15.40;99.90
46378;DHT22;32083;47.360;9.650;2023-05-14T10:18:46;15.40;99.90
46378;DHT22;32083;47.360;9.650;2023-05-14T10:21:19;15.70;99.90
46378;DHT22;32083;47.360;9.650;2023-05-14T10:23:47;15.70;99.90
46378;DHT22;32083;47.360;9.650;2023-05-14T10:26:13;15.70;99.90
46378;DHT22;32083;47.360;9.650;2023-05-14T10:28:40;15.60;99.90
46378;DHT22;32083;47.360;9.650;2023-05-14T10:31:10;15.50;99.90
46378;DHT22;32083;47.360;9.650;2023-05-14T10:33:48;15.40;99.90
46378;DHT22;32083;47.360;9.650;2023-05-14T10:36:19;15.50;99.90
46378;DHT22;32083;47.360;9.650;2023-05-14T10:38:45;15.40;99.90
46378;DHT22;32083;47.360;9.650;2023-05-14T10:41:13;15.30;99.90
46378;DHT22;32083;47.360;9.650;2023-05-14T10:43:46;15.30;99.90
46378;DHT22;32083;47.360;9.650;2023-05-14T10:46:13;15.10;99.90
46378;DHT22;32083;47.360;9.650;2023-05-14T10:48:41;15.10;99.90
46378;DHT22;32083;47.360;9.650;2023-05-14T10:51:11;15.10;99.90
46378;DHT22;32083;47.360;9.650;2023-05-14T10:53:39;15.10;99.90
46378;DHT22;32083;47.360;9.650;2023-05-14T10:56:09;15.10;99.90
46378;DHT22;32083;47.360;9.650;2023-05-14T10:58:43;15.10;99.90
46378;DHT22;32083;47.360;9.650;2023-05-14T11:01:11;15.10;99.90
46378;DHT22;32083;47.360;9.650;2023-05-14T11:03:44;15.20;99.90
46378;DHT22;32083;47.360;9.650;2023-05-14T11:06:12;15.30;99.90
46378;DHT22;32083;47.360;9.650;2023-05-14T11:08:39;15.40;99.90
46378;DHT22;32083;47.360;9.650;2023-05-14T11:11:06;15.40;99.90
46378;DHT22;32083;47.360;9.650;2023-05-14T11:13:32;15.50;99.90
46378;DHT22;32083;47.360;9.650;2023-05-14T11:16:00;15.50;99.90
46378;DHT22;32083;47.360;9.650;2023-05-14T11:18:31;15.50;99.90
46378;DHT22;32083;47.360;9.650;2023-05-14T11:21:01;15.50;99.90
46378;DHT22;32083;47.360;9.650;2023-05-14T11:23:28;15.50;99.90
46378;DHT22;32083;47.360;9.650;2023-05-14T11:25:55;15.70;99.90
46378;DHT22;32083;47.360;9.650;2023-05-14T11:28:25;15.80;99.90
46378;DHT22;32083;47.360;9.650;2023-05-14T11:30:52;15.20;99.90
46378;DHT22;32083;47.360;9.650;2023-05-14T11:33:19;15.20;99.90
46378;DHT22;32083;47.360;9.650;2023-05-14T11:35:48;15.00;99.90
46378;DHT22;32083;47.360;9.650;2023-05-14T11:38:19;14.70;99.90
46378;DHT22;32083;47.360;9.650;2023-05-14T11:40:55;14.50;99.90
46378;DHT22;32083;47.360;9.650;2023-05-14T11:43:21;14.10;99.90
46378;DHT22;32083;47.360;9.650;2023-05-14T11:45:54;14.10;99.90
46378;DHT22;32083;47.360;9.650;2023-05-14T11:48:21;13.80;99.90
46378;DHT22;32083;47.360;9.650;2023-05-14T11:50:49;13.60;99.90
46378;DHT22;32083;47.360;9.650;2023-05-14T11:53:23;13.50;99.90
46378;DHT22;32083;47.360;9.650;2023-05-14T11:55:49;13.10;99.90
46378;DHT22;32083;47.360;9.650;2023-05-14T11:58:17;13.20;99.90
46378;DHT22;32083;47.360;9.650;2023-05-14T12:00:49;13.20;99.90
46378;DHT22;32083;47.360;9.650;2023-05-14T12:03:17;13.30;99.90
46378;DHT22;32083;47.360;9.650;2023-05-14T12:06:01;13.20;99.90
46378;DHT22;32083;47.360;9.650;2023-05-14T12:08:29;13.20;99.90
46378;DHT22;32083;47.360;9.650;2023-05-14T12:10:57;13.20;99.90
46378;DHT22;32083;47.360;9.650;2023-05-14T12:13:28;13.20;99.90
46378;DHT22;32083;47.360;9.650;2023-05-14T12:15:59;13.30;99.90
46378;DHT22;32083;47.360;9.650;2023-05-14T12:18:27;13.30;99.90
46378;DHT22;32083;47.360;9.650;2023-05-14T12:20:54;13.30;99.90
46378;DHT22;32083;47.360;9.650;2023-05-14T12:23:29;13.30;99.90
46378;DHT22;32083;47.360;9.650;2023-05-14T12:26:00;13.40;99.90
46378;DHT22;32083;47.360;9.650;2023-05-14T12:28:27;13.20;99.90
46378;DHT22;32083;47.360;9.650;2023-05-14T12:30:57;13.20;99.90
46378;DHT22;32083;47.360;9.650;2023-05-14T12:33:24;13.30;99.90
46378;DHT22;32083;47.360;9.650;2023-05-14T12:35:52;13.20;99.90
46378;DHT22;32083;47.360;9.650;2023-05-14T12:38:27;13.10;99.90
46378;DHT22;32083;47.360;9.650;2023-05-14T12:40:53;13.20;99.90
46378;DHT22;32083;47.360;9.650;2023-05-14T12:43:19;13.00;99.90
46378;DHT22;32083;47.360;9.650;2023-05-14T12:45:45;13.10;99.90
46378;DHT22;32083;47.360;9.650;2023-05-14T12:48:11;13.10;99.90
46378;DHT22;32083;47.360;9.650;2023-05-14T12:50:38;13.30;99.90
46378;DHT22;32083;47.360;9.650;2023-05-14T12:53:04;13.30;99.90
46378;DHT22;32083;47.360;9.650;2023-05-14T12:55:30;13.40;99.90
46378;DHT22;32083;47.360;9.650;2023-05-14T12:57:56;13.50;99.90
46378;DHT22;32083;47.360;9.650;2023-05-14T13:00:22;13.60;99.90
46378;DHT22;32083;47.360;9.650;2023-05-14T13:02:48;13.60;99.90
46378;DHT22;32083;47.360;9.650;2023-05-14T13:05:14;13.50;99.90
46378;DHT22;32083;47.360;9.650;2023-05-14T13:07:40;13.50;99.90
46378;DHT22;32083;47.360;9.650;2023-05-14T13:10:07;13.50;99.90
46378;DHT22;32083;47.360;9.650;2023-05-14T13:12:33;13.50;99.90
46378;DHT22;32083;47.360;9.650;2023-05-14T13:14:59;13.40;99.90
46378;DHT22;32083;47.360;9.650;2023-05-14T13:17:25;13.50;99.90
46378;DHT22;32083;47.360;9.650;2023-05-14T13:19:51;13.60;99.90
46378;DHT22;32083;47.360;9.650;2023-05-14T13:22:17;13.80;99.90
46378;DHT22;32083;47.360;9.650;2023-05-14T13:24:43;13.80;99.90
46378;DHT22;32083;47.360;9.650;2023-05-14T13:27:10;13.80;99.90
46378;DHT22;32083;47.360;9.650;2023-05-14T13:29:36;13.90;99.90
46378;DHT22;32083;47.360;9.650;2023-05-14T13:32:02;13.90;99.90
46378;DHT22;32083;47.360;9.650;2023-05-14T13:34:28;14.00;99.90
46378;DHT22;32083;47.360;9.650;2023-05-14T13:36:54;14.00;99.90
46378;DHT22;32083;47.360;9.650;2023-05-14T13:39:20;13.70;99.90
46378;DHT22;32083;47.360;9.650;2023-05-14T13:41:52;13.70;99.90
46378;DHT22;32083;47.360;9.650;2023-05-14T13:44:20;13.80;99.90
46378;DHT22;32083;47.360;9.650;2023-05-14T13:46:46;13.80;99.90
46378;DHT22;32083;47.360;9.650;2023-05-14T13:49:12;13.80;99.90
46378;DHT22;32083;47.360;9.650;2023-05-14T13:51:38;13.80;99.90
46378;DHT22;32083;47.360;9.650;2023-05-14T13:54:04;13.80;99.90
46378;DHT22;32083;47.360;9.650;2023-05-14T13:56:30;13.70;99.90
46378;DHT22;32083;47.360;9.650;2023-05-14T13:58:56;13.80;99.90
46378;DHT22;32083;47.360;9.650;2023-05-14T14:01:22;13.90;99.90
46378;DHT22;32083;47.360;9.650;2023-05-14T14:03:48;13.90;99.90
46378;DHT22;32083;47.360;9.650;2023-05-14T14:06:14;14.00;99.90
46378;DHT22;32083;47.360;9.650;2023-05-14T14:08:40;14.10;99.90
46378;DHT22;32083;47.360;9.650;2023-05-14T14:11:06;14.20;99.90
46378;DHT22;32083;47.360;9.650;2023-05-14T14:13:32;14.20;99.90
46378;DHT22;32083;47.360;9.650;2023-05-14T14:15:58;14.20;99.90
46378;DHT22;32083;47.360;9.650;2023-05-14T14:18:25;14.30;99.90
46378;DHT22;32083;47.360;9.650;2023-05-14T14:20:51;14.30;99.90
46378;DHT22;32083;47.360;9.650;2023-05-14T14:23:17;14.40;99.90
46378;DHT22;32083;47.360;9.650;2023-05-14T14:25:44;14.50;99.90
46378;DHT22;32083;47.360;9.650;2023-05-14T14:28:10;14.50;99.90
46378;DHT22;32083;47.360;9.650;2023-05-14T14:30:36;14.60;99.90
46378;DHT22;32083;47.360;9.650;2023-05-14T14:33:02;14.60;99.90
46378;DHT22;32083;47.360;9.650;2023-05-14T14:35:28;14.60;99.90
46378;DHT22;32083;47.360;9.650;2023-05-14T14:37:55;14.60;99.90
46378;DHT22;32083;47.360;9.650;2023-05-14T14:40:21;14.70;99.90
46378;DHT22;32083;47.360;9.650;2023-05-14T14:42:48;14.70;99.90
46378;DHT22;32083;47.360;9.650;2023-05-14T14:45:14;14.60;99.90
46378;DHT22;32083;47.360;9.650;2023-05-14T14:47:45;14.60;99.90
46378;DHT22;32083;47.360;9.650;2023-05-14T14:50:14;14.60;99.90
46378;DHT22;32083;47.360;9.650;2023-05-14T14:52:40;14.40;99.90
46378;DHT22;32083;47.360;9.650;2023-05-14T14:55:09;14.40;99.90
46378;DHT22;32083;47.360;9.650;2023-05-14T14:57:35;14.20;99.90
46378;DHT22;32083;47.360;9.650;2023-05-14T15:00:01;14.20;99.90
46378;DHT22;32083;47.360;9.650;2023-05-14T15:02:28;14.30;99.90
46378;DHT22;32083;47.360;9.650;2023-05-14T15:04:54;14.20;99.90
46378;DHT22;32083;47.360;9.650;2023-05-14T15:07:20;14.30;99.90
46378;DHT22;32083;47.360;9.650;2023-05-14T15:09:47;14.30;99.90
46378;DHT22;32083;47.360;9.650;2023-05-14T15:12:13;14.40;99.90
46378;DHT22;32083;47.360;9.650;2023-05-14T15:14:39;14.40;99.90
46378;DHT22;32083;47.360;9.650;2023-05-14T15:17:05;14.60;99.90
46378;DHT22;32083;47.360;9.650;2023-05-14T15:19:31;14.60;99.90
46378;DHT22;32083;47.360;9.650;2023-05-14T15:21:57;14.60;99.90
46378;DHT22;32083;47.360;9.650;2023-05-14T15:24:23;14.70;99.90
46378;DHT22;32083;47.360;9.650;2023-05-14T15:26:50;14.60;99.90
46378;DHT22;32083;47.360;9.650;2023-05-14T15:29:17;14.70;99.90
46378;DHT22;32083;47.360;9.650;2023-05-14T15:31:44;14.80;99.90
46378;DHT22;32083;47.360;9.650;2023-05-14T15:34:10;14.90;99.90
46378;DHT22;32083;47.360;9.650;2023-05-14T15:36:36;14.90;99.90
46378;DHT22;32083;47.360;9.650;2023-05-14T15:39:02;15.00;99.90
46378;DHT22;32083;47.360;9.650;2023-05-14T15:41:28;15.00;99.90
46378;DHT22;32083;47.360;9.650;2023-05-14T15:43:54;15.00;99.90
46378;DHT22;32083;47.360;9.650;2023-05-14T15:46:20;15.00;99.90
46378;DHT22;32083;47.360;9.650;2023-05-14T15:48:48;15.00;99.90
46378;DHT22;32083;47.360;9.650;2023-05-14T15:51:14;15.00;99.90
46378;DHT22;32083;47.360;9.650;2023-05-14T15:53:40;15.20;99.90
46378;DHT22;32083;47.360;9.650;2023-05-14T15:56:06;15.30;99.90
46378;DHT22;32083;47.360;9.650;2023-05-14T15:58:32;15.50;99.90
46378;DHT22;32083;47.360;9.650;2023-05-14T16:00:58;15.60;99.90
46378;DHT22;32083;47.360;9.650;2023-05-14T16:03:24;15.70;99.90
46378;DHT22;32083;47.360;9.650;2023-05-14T16:05:50;15.80;99.90
46378;DHT22;32083;47.360;9.650;2023-05-14T16:08:16;16.00;99.90
46378;DHT22;32083;47.360;9.650;2023-05-14T16:10:42;16.20;99.90
46378;DHT22;32083;47.360;9.650;2023-05-14T16:13:08;16.30;99.90
46378;DHT22;32083;47.360;9.650;2023-05-14T16:15:34;16.40;99.90
46378;DHT22;32083;47.360;9.650;2023-05-14T16:18:00;16.40;99.90
46378;DHT22;32083;47.360;9.650;2023-05-14T16:20:26;16.40;99.90
46378;DHT22;32083;47.360;9.650;2023-05-14T16:22:52;16.40;99.90
46378;DHT22;32083;47.360;9.650;2023-05-14T16:25:18;16.30;99.90
46378;DHT22;32083;47.360;9.650;2023-05-14T16:27:44;16.10;99.90
46378;DHT22;32083;47.360;9.650;2023-05-14T16:30:11;16.00;99.90
46378;DHT22;32083;47.360;9.650;2023-05-14T16:32:37;15.90;99.90
46378;DHT22;32083;47.360;9.650;2023-05-14T16:35:03;15.90;99.90
46378;DHT22;32083;47.360;9.650;2023-05-14T16:37:30;15.90;99.90
46378;DHT22;32083;47.360;9.650;2023-05-14T16:39:56;16.00;99.90
46378;DHT22;32083;47.360;9.650;2023-05-14T16:42:22;16.10;99.90
46378;DHT22;32083;47.360;9.650;2023-05-14T16:44:48;16.10;99.90
46378;DHT22;32083;47.360;9.650;2023-05-14T16:47:14;16.00;99.90
46378;DHT22;32083;47.360;9.650;2023-05-14T16:49:40;16.00;99.90
46378;DHT22;32083;47.360;9.650;2023-05-14T16:52:06;16.00;99.90
46378;DHT22;32083;47.360;9.650;2023-05-14T16:54:32;16.00;99.90
46378;DHT22;32083;47.360;9.650;2023-05-14T16:56:58;16.00;99.90
46378;DHT22;32083;47.360;9.650;2023-05-14T16:59:24;16.00;99.90
46378;DHT22;32083;47.360;9.650;2023-05-14T17:01:50;16.10;99.90
46378;DHT22;32083;47.360;9.650;2023-05-14T17:04:16;16.10;99.90
46378;DHT22;32083;47.360;9.650;2023-05-14T17:06:42;16.20;99.90
46378;DHT22;32083;47.360;9.650;2023-05-14T17:09:10;16.20;99.90
46378;DHT22;32083;47.360;9.650;2023-05-14T17:11:36;16.20;99.90
46378;DHT22;32083;47.360;9.650;2023-05-14T17:14:02;16.20;99.90
46378;DHT22;32083;47.360;9.650;2023-05-14T17:16:28;16.10;99.90
46378;DHT22;32083;47.360;9.650;2023-05-14T17:18:54;16.00;99.90
46378;DHT22;32083;47.360;9.650;2023-05-14T17:21:20;15.90;99.90
46378;DHT22;32083;47.360;9.650;2023-05-14T17:23:46;15.90;99.90
46378;DHT22;32083;47.360;9.650;2023-05-14T17:26:12;15.70;99.90
46378;DHT22;32083;47.360;9.650;2023-05-14T17:28:38;15.70;99.90
46378;DHT22;32083;47.360;9.650;2023-05-14T17:31:04;15.50;99.90
46378;DHT22;32083;47.360;9.650;2023-05-14T17:33:30;15.50;99.90
46378;DHT22;32083;47.360;9.650;2023-05-14T17:35:57;15.30;99.90
46378;DHT22;32083;47.360;9.650;2023-05-14T17:38:23;15.30;99.90
46378;DHT22;32083;47.360;9.650;2023-05-14T17:40:49;15.20;99.90
46378;DHT22;32083;47.360;9.650;2023-05-14T17:43:15;15.30;99.90
46378;DHT22;32083;47.360;9.650;2023-05-14T17:45:41;15.20;99.90
46378;DHT22;32083;47.360;9.650;2023-05-14T17:48:07;15.20;99.90
46378;DHT22;32083;47.360;9.650;2023-05-14T17:50:33;15.10;99.90
46378;DHT22;32083;47.360;9.650;2023-05-14T17:52:59;15.00;99.90
46378;DHT22;32083;47.360;9.650;2023-05-14T17:55:25;15.00;99.90
46378;DHT22;32083;47.360;9.650;2023-05-14T17:57:51;14.90;99.90
46378;DHT22;32083;47.360;9.650;2023-05-14T18:00:17;14.80;99.90
46378;DHT22;32083;47.360;9.650;2023-05-14T18:02:44;14.80;99.90
46378;DHT22;32083;47.360;9.650;2023-05-14T18:05:09;14.70;99.90
46378;DHT22;32083;47.360;9.650;2023-05-14T18:07:36;14.60;99.90
46378;DHT22;32083;47.360;9.650;2023-05-14T18:10:02;14.50;99.90
46378;DHT22;32083;47.360;9.650;2023-05-14T18:12:28;14.30;99.90
46378;DHT22;32083;47.360;9.650;2023-05-14T18:14:54;14.00;99.90
46378;DHT22;32083;47.360;9.650;2023-05-14T18:17:20;14.00;99.90
46378;DHT22;32083;47.360;9.650;2023-05-14T18:19:46;13.90;99.90
46378;DHT22;32083;47.360;9.650;2023-05-14T18:22:13;13.80;99.90
46378;DHT22;32083;47.360;9.650;2023-05-14T18:24:40;13.80;99.90
46378;DHT22;32083;47.360;9.650;2023-05-14T18:27:06;13.80;99.90
46378;DHT22;32083;47.360;9.650;2023-05-14T18:29:33;13.70;99.90
46378;DHT22;32083;47.360;9.650;2023-05-14T18:31:58;13.70;99.90
46378;DHT22;32083;47.360;9.650;2023-05-14T18:34:24;13.70;99.90
46378;DHT22;32083;47.360;9.650;2023-05-14T18:36:51;13.70;99.90
46378;DHT22;32083;47.360;9.650;2023-05-14T18:39:17;13.70;99.90
46378;DHT22;32083;47.360;9.650;2023-05-14T18:41:43;13.60;99.90